WetterOnline ( http://www.wetteronline.de )

Wetter aktuell Bremervörde

Aktuelles Wetter: Bremervörde (5m)

6-stündlich | Neueste Meldungen
Ortszeit Temperatur Wetter
So, 27.05. 2:00 15.6° C bewölkt
Sa, 26.05. 20:00 23.6° C fast wolkenlos
Sa, 26.05. 14:00 26.4° C wolkenlos
Sa, 26.05. 8:00 14.7° C wolkenlos
Sa, 26.05. 2:00 12.7° C wolkenlos
Fr, 25.05. 20:00 21.9° C wolkenlos
Fr, 25.05. 14:00 26.0° C leicht bewölkt
Fr, 25.05. 8:00 17.5° C wolkenlos
Ortszeit Temperatur Wetter
So, 27.05. 7:00 14.1° C wolkenlos
So, 27.05. 6:50 14.1° C wolkenlos
So, 27.05. 6:40 13.9° C fast wolkenlos
So, 27.05. 6:30 13.3° C leicht bewölkt
So, 27.05. 6:20 13.3° C leicht bewölkt
So, 27.05. 6:10 13.0° C fast wolkenlos
So, 27.05. 6:00 12.6° C wolkenlos
So, 27.05. 5:30 13.0° C leicht bewölkt
So, 27.05. 5:00 13.2° C wolkig
So, 27.05. 4:30 13.2° C leicht bewölkt
So, 27.05. 4:00 13.5° C leicht bewölkt
Ortszeit Relative Feuchte Sichtweite
So, 27.05. 2:00 70% 40 km
Sa, 26.05. 20:00 48% 5.0 km
Sa, 26.05. 14:00 37% 4.2 km
Sa, 26.05. 8:00 77% 8 km
Sa, 26.05. 2:00 73% 65 km
Fr, 25.05. 20:00 38% 3.8 km
Fr, 25.05. 14:00 36% 6 km
Fr, 25.05. 8:00 62% 11 km
Ortszeit Relative Feuchte Sichtweite
So, 27.05. 7:00 84% 5.0 km
So, 27.05. 6:50 84% -
So, 27.05. 6:40 85% -
So, 27.05. 6:30 86% 10 km
So, 27.05. 6:20 86% -
So, 27.05. 6:10 86% -
So, 27.05. 6:00 87% 9 km
So, 27.05. 5:30 84% 11 km
So, 27.05. 5:00 83% 15 km
So, 27.05. 4:30 82% 23 km
So, 27.05. 4:00 80% 30 km
Ortszeit Niederschlagsmenge Niederschlagsart
So, 27.05. 2:00 0.0 l/m2 in 6 Std. -
Sa, 26.05. 20:00 0.0 l/m2 in 12 Std. -
Sa, 26.05. 14:00 0.0 l/m2 in 6 Std. -
Sa, 26.05. 8:00 0.0 l/m2 in 12 Std. -
Sa, 26.05. 2:00 0.0 l/m2 in 6 Std. -
Fr, 25.05. 20:00 0.0 l/m2 in 12 Std. -
Fr, 25.05. 14:00 0.0 l/m2 in 6 Std. -
Fr, 25.05. 8:00 0.0 l/m2 in 12 Std. -
Ortszeit Niederschlagsmenge Niederschlagsart
So, 27.05. 7:00 0.0 l/m2 in 1 Std. -
So, 27.05. 6:50 keine Meldung -
So, 27.05. 6:40 keine Meldung -
So, 27.05. 6:30 0.0 l/m2 in 1 Std. -
So, 27.05. 6:20 keine Meldung -
So, 27.05. 6:10 keine Meldung -
So, 27.05. 6:00 0.0 l/m2 in 1 Std. -
So, 27.05. 5:30 0.0 l/m2 in 1 Std. -
So, 27.05. 5:00 0.0 l/m2 in 1 Std. -
So, 27.05. 4:30 0.0 l/m2 in 1 Std. -
So, 27.05. 4:00 0.0 l/m2 in 1 Std. -
Ortszeit Stärke Spitze Richtung
km/h Bft. km/h Grad Sektor
So, 27.05. 2:00 7 2 32 70° O
Sa, 26.05. 20:00 22 4 40 70° O
Sa, 26.05. 14:00 14 3 32 80° O
Sa, 26.05. 8:00 14 3 22 80° O
Sa, 26.05. 2:00 7 2 43 40° NO
Fr, 25.05. 20:00 25 4 47 80° O
Fr, 25.05. 14:00 19 3 48 110° O
Fr, 25.05. 8:00 13 3 26 90° O
Ortszeit Stärke Spitze Richtung
km/h Bft. km/h Grad Sektor
So, 27.05. 7:00 11 2 14 40° NO
So, 27.05. 6:50 11 2 - 40° NO
So, 27.05. 6:40 9 2 - 30° NO
So, 27.05. 6:30 7 2 11 30° NO
So, 27.05. 6:20 7 2 - 30° NO
So, 27.05. 6:10 6 1 - 50° NO
So, 27.05. 6:00 4 1 14 20° N
So, 27.05. 5:30 7 2 14 60° NO
So, 27.05. 5:00 7 2 14 60° NO
So, 27.05. 4:30 7 2 11 50° NO
So, 27.05. 4:00 7 2 14 50° NO
Ortszeit Untergrenze Bedeckung Gattung
total tief tief mittel hoch
So, 27.05. 2:00 4800 m 7/8 7/8 - - -
Sa, 26.05. 20:00 5700 m 1/8 1/8 - - -
Sa, 26.05. 14:00 - 0/8 0/8 - - -
Sa, 26.05. 8:00 - 0/8 0/8 - - -
Sa, 26.05. 2:00 - 0/8 0/8 - - -
Fr, 25.05. 20:00 - 0/8 0/8 - - -
Fr, 25.05. 14:00 1800 m 3/8 3/8 - - -
Fr, 25.05. 8:00 - 0/8 0/8 - - -
Ortszeit Bedeckungsgrad in Achtel und Wolkenuntergrenze
So, 27.05. 7:00 keine Wolken
So, 27.05. 6:50 keine Wolken
So, 27.05. 6:40 1(2700m)
So, 27.05. 6:30 2(2700m)
So, 27.05. 6:20 2(2700m)
So, 27.05. 6:10 1(2700m)
So, 27.05. 6:00 keine Wolken
So, 27.05. 5:30 3(4800m)
So, 27.05. 5:00 6(4800m)
So, 27.05. 4:30 4(4800m)
So, 27.05. 4:00 4(4800m)
Ortszeit Luftdruck NN (hPa) Tendenz (hPa in 3 Std.)
So, 27.05. 2:00 1024 + 0,5
Sa, 26.05. 20:00 1022 + 0,3
Sa, 26.05. 14:00 1022 - 0,3
Sa, 26.05. 8:00 1023 + 0,1
Sa, 26.05. 2:00 1023 + 1,2
Fr, 25.05. 20:00 1021 + 0,5
Fr, 25.05. 14:00 1020 - 0,7
Fr, 25.05. 8:00 1021 - 0,2
Ortszeit Luftdruck NN (hPa) Tendenz (hPa in 3 Std.)
So, 27.05. 7:00 1022 - 1,1
So, 27.05. 6:50 1022 keine Meldung
So, 27.05. 6:40 1022 keine Meldung
So, 27.05. 6:30 1022 - 1,0
So, 27.05. 6:20 1022 keine Meldung
So, 27.05. 6:10 1022 keine Meldung
So, 27.05. 6:00 1023 - 0,7
So, 27.05. 5:30 1023 - 0,7
So, 27.05. 5:00 1023 - 0,7
So, 27.05. 4:30 1023 0,0
So, 27.05. 4:00 1023 + 0,2
Ortszeit Schneehöhe (cm)
So, 27.05. 2:00 -
Sa, 26.05. 20:00 -
Sa, 26.05. 14:00 -
Sa, 26.05. 8:00 -
Sa, 26.05. 2:00 -
Fr, 25.05. 20:00 -
Fr, 25.05. 14:00 -
Fr, 25.05. 8:00 -
Ortszeit Schneehöhe (cm)
So, 27.05. 7:00 -
So, 27.05. 6:50 -
So, 27.05. 6:40 -
So, 27.05. 6:30 -
So, 27.05. 6:20 -
So, 27.05. 6:10 -
So, 27.05. 6:00 -
So, 27.05. 5:30 -
So, 27.05. 5:00 -
So, 27.05. 4:30 -
So, 27.05. 4:00 -
Link zu dieser Seite / Seite empfehlen

Das Wetter in ...